Time;durP1;ratioP1;P1;durP2;ratioP2;P2;SDS_P1;SDS_P2;PMS_P1;PMS_P2;Temp;Humidity;BMP_temperature;BMP_pressure;BME280_temperature;BME280_humidity;BME280_pressure;Samples;Min_cycle;Max_cycle;Signal;HPM_P1;HPM_P2
2023/06/26 00:01:31;;;;;;;9.88;5.07;;;;;;;;;;7367836;19;20070;-72
2023/06/26 00:03:57;;;;;;;8.65;5.30;;;;;;;;;;7367809;19;20509;-74
2023/06/26 00:06:25;;;;;;;8.00;4.90;;;;;;;;;;7387970;19;20023;-71
2023/06/26 00:08:53;;;;;;;7.78;5.07;;;;;;;;;;7366487;19;20046;-72
2023/06/26 00:11:18;;;;;;;9.88;5.38;;;;;;;;;;7364071;19;20019;-72
2023/06/26 00:13:44;;;;;;;9.93;5.10;;;;;;;;;;7367981;19;20010;-72
2023/06/26 00:16:09;;;;;;;7.93;4.78;;;;;;;;;;7375242;19;20021;-72
2023/06/26 00:18:34;;;;;;;7.90;4.88;;;;;;;;;;7393611;19;20007;-72
2023/06/26 00:21:00;;;;;;;9.00;5.30;;;;;;;;;;7374325;19;20520;-71
2023/06/26 00:23:26;;;;;;;9.27;5.50;;;;;;;;;;7375717;19;20818;-71
2023/06/26 00:25:51;;;;;;;10.40;5.35;;;;;;;;;;7375330;19;20093;-71
2023/06/26 00:28:16;;;;;;;9.35;5.47;;;;;;;;;;7373070;19;20397;-72
2023/06/26 00:30:42;;;;;;;8.43;5.05;;;;;;;;;;7394107;19;20424;-71
2023/06/26 00:33:07;;;;;;;8.25;5.05;;;;;;;;;;7374354;19;20468;-71
2023/06/26 00:35:32;;;;;;;9.48;5.80;;;;;;;;;;7373867;19;20006;-72
2023/06/26 00:37:58;;;;;;;9.18;5.97;;;;;;;;;;7372480;19;20381;-72
2023/06/26 00:40:23;;;;;;;9.45;5.35;;;;;;;;;;7373236;19;20010;-71
2023/06/26 00:42:49;;;;;;;11.90;5.25;;;;;;;;;;7396377;19;20634;-71
2023/06/26 00:45:15;;;;;;;11.55;5.43;;;;;;;;;;7373569;19;20664;-71
2023/06/26 00:47:41;;;;;;;9.18;5.60;;;;;;;;;;7372365;19;20017;-72
2023/06/26 00:50:06;;;;;;;12.70;5.63;;;;;;;;;;7372083;19;20357;-72
2023/06/26 00:52:32;;;;;;;9.75;5.65;;;;;;;;;;7372668;19;20038;-71
2023/06/26 00:54:57;;;;;;;12.05;5.85;;;;;;;;;;7373677;19;20061;-72
2023/06/26 00:57:24;;;;;;;8.20;5.68;;;;;;;;;;7394497;19;20082;-72
2023/06/26 00:59:50;;;;;;;11.02;5.40;;;;;;;;;;7373314;19;20135;-70
2023/06/26 01:02:19;;;;;;;9.20;5.43;;;;;;;;;;7373181;19;20010;-71
2023/06/26 01:04:49;;;;;;;9.23;5.45;;;;;;;;;;7372845;19;20018;-71
2023/06/26 01:07:15;;;;;;;8.80;5.43;;;;;;;;;;7371870;19;20102;-71
2023/06/26 01:09:41;;;;;;;10.13;5.68;;;;;;;;;;7398558;19;20014;-72
2023/06/26 01:12:07;;;;;;;13.77;6.00;;;;;;;;;;7380306;19;20018;-71
2023/06/26 01:14:36;;;;;;;9.93;6.25;;;;;;;;;;7377288;19;20013;-71
2023/06/26 01:17:02;;;;;;;9.98;6.00;;;;;;;;;;7372764;19;20043;-72
2023/06/26 01:19:30;;;;;;;9.45;5.68;;;;;;;;;;7371671;19;20006;-72
2023/06/26 01:22:23;;;;;;;9.23;5.97;;;;;;;;;;7373740;19;20006;-72
2023/06/26 01:25:23;;;;;;;11.57;6.35;;;;;;;;;;7392126;19;20042;-71
2023/06/26 01:27:52;;;;;;;9.57;5.75;;;;;;;;;;7268634;19;2004422;-71
2023/06/26 01:30:19;;;;;;;8.43;5.47;;;;;;;;;;7393512;19;20021;-71
2023/06/26 01:32:44;;;;;;;9.48;5.57;;;;;;;;;;7371514;19;20106;-70
2023/06/26 01:35:11;;;;;;;12.60;5.68;;;;;;;;;;7370911;19;20060;-71
2023/06/26 01:37:36;;;;;;;9.00;5.60;;;;;;;;;;7370967;19;20034;-71
2023/06/26 01:40:05;;;;;;;9.82;5.75;;;;;;;;;;7371788;19;20006;-72
2023/06/26 01:42:30;;;;;;;9.82;5.97;;;;;;;;;;7394050;19;20034;-73
2023/06/26 01:44:57;;;;;;;8.68;5.28;;;;;;;;;;7370236;19;20383;-72
2023/06/26 01:47:26;;;;;;;8.52;5.97;;;;;;;;;;7370616;19;20007;-71
2023/06/26 01:49:54;;;;;;;11.48;6.00;;;;;;;;;;7370400;19;20021;-70
2023/06/26 01:52:43;;;;;;;12.25;5.93;;;;;;;;;;7371726;19;20010;-71
2023/06/26 01:55:11;;;;;;;8.63;5.53;;;;;;;;;;7370738;19;20032;-73
2023/06/26 01:57:39;;;;;;;9.50;5.35;;;;;;;;;;7391036;19;20078;-71
2023/06/26 02:00:07;;;;;;;10.88;6.03;;;;;;;;;;7370789;19;20131;-72
2023/06/26 02:02:34;;;;;;;12.90;6.00;;;;;;;;;;7370049;19;20011;-71
2023/06/26 02:04:59;;;;;;;9.48;5.72;;;;;;;;;;7369980;19;20464;-72
2023/06/26 02:07:25;;;;;;;10.32;5.45;;;;;;;;;;7370113;19;20044;-71
2023/06/26 02:09:51;;;;;;;12.88;6.18;;;;;;;;;;7391586;19;20029;-72
2023/06/26 02:12:16;;;;;;;11.88;6.35;;;;;;;;;;7369678;19;20015;-71
2023/06/26 02:14:41;;;;;;;9.52;5.68;;;;;;;;;;7371321;19;20006;-71
2023/06/26 02:17:08;;;;;;;8.73;5.45;;;;;;;;;;7369883;19;20137;-72
2023/06/26 02:19:34;;;;;;;9.25;5.93;;;;;;;;;;7370654;19;20074;-72
2023/06/26 02:21:59;;;;;;;9.93;5.97;;;;;;;;;;7371563;19;19994;-71
2023/06/26 02:24:24;;;;;;;10.30;6.15;;;;;;;;;;7391779;19;20028;-72
2023/06/26 02:26:50;;;;;;;9.77;5.90;;;;;;;;;;7370351;19;20031;-71
2023/06/26 02:29:15;;;;;;;11.60;6.50;;;;;;;;;;7369884;19;20018;-72
2023/06/26 02:31:41;;;;;;;10.98;6.18;;;;;;;;;;7368302;19;20451;-71
2023/06/26 02:34:06;;;;;;;10.95;6.72;;;;;;;;;;7368427;19;20019;-72
2023/06/26 02:36:31;;;;;;;9.35;5.70;;;;;;;;;;7390387;19;20022;-71
2023/06/26 02:38:57;;;;;;;12.43;6.75;;;;;;;;;;7369510;19;20010;-72
2023/06/26 02:41:22;;;;;;;9.95;5.95;;;;;;;;;;7369845;19;20055;-71
2023/06/26 02:43:47;;;;;;;9.80;6.15;;;;;;;;;;7370400;19;20014;-71
2023/06/26 02:46:13;;;;;;;10.38;6.07;;;;;;;;;;7369559;19;20008;-71
2023/06/26 02:48:38;;;;;;;10.40;6.03;;;;;;;;;;7389628;19;20380;-72
2023/06/26 02:51:03;;;;;;;9.40;5.75;;;;;;;;;;7367534;19;20031;-72
2023/06/26 02:53:29;;;;;;;9.68;5.82;;;;;;;;;;7368990;19;20334;-71
2023/06/26 02:55:54;;;;;;;11.20;6.50;;;;;;;;;;7370148;19;20007;-71
2023/06/26 02:58:20;;;;;;;9.30;6.20;;;;;;;;;;7376622;19;20014;-73
2023/06/26 03:00:45;;;;;;;10.23;5.90;;;;;;;;;;7395526;19;20511;-71
2023/06/26 03:03:10;;;;;;;9.60;5.75;;;;;;;;;;7371411;19;20018;-71
2023/06/26 03:05:35;;;;;;;9.55;5.95;;;;;;;;;;7368668;19;20056;-71
2023/06/26 03:08:02;;;;;;;9.95;5.65;;;;;;;;;;7366475;19;20019;-71
2023/06/26 03:10:28;;;;;;;9.73;5.90;;;;;;;;;;7368063;19;20007;-71
2023/06/26 03:12:53;;;;;;;10.90;6.05;;;;;;;;;;7375072;19;20396;-71
2023/06/26 03:15:19;;;;;;;10.02;6.05;;;;;;;;;;7386970;19;20010;-72
2023/06/26 03:17:44;;;;;;;11.32;5.90;;;;;;;;;;7366286;19;20572;-72
2023/06/26 03:20:10;;;;;;;10.88;5.53;;;;;;;;;;7365224;19;20019;-71
2023/06/26 03:22:36;;;;;;;9.52;5.80;;;;;;;;;;7364436;19;20010;-71
2023/06/26 03:25:02;;;;;;;8.55;5.60;;;;;;;;;;7366156;19;20006;-72
2023/06/26 03:27:27;;;;;;;8.48;6.05;;;;;;;;;;7387351;19;20327;-71
2023/06/26 03:29:53;;;;;;;11.32;5.97;;;;;;;;;;7366600;19;20007;-71
2023/06/26 03:32:18;;;;;;;8.48;5.45;;;;;;;;;;7368947;19;20031;-70
2023/06/26 03:34:43;;;;;;;11.10;5.57;;;;;;;;;;7368559;19;20035;-71
2023/06/26 03:37:09;;;;;;;8.73;5.03;;;;;;;;;;7367253;19;20027;-71
2023/06/26 03:39:34;;;;;;;8.68;5.50;;;;;;;;;;7386735;19;20023;-68
2023/06/26 03:42:00;;;;;;;12.40;6.57;;;;;;;;;;7367694;19;20031;-67
2023/06/26 03:44:26;;;;;;;9.07;5.68;;;;;;;;;;7368539;19;20464;-69
2023/06/26 03:46:52;;;;;;;9.23;5.25;;;;;;;;;;7367470;19;20017;-67
2023/06/26 03:49:17;;;;;;;9.57;5.20;;;;;;;;;;7366121;19;20011;-68
2023/06/26 03:51:43;;;;;;;9.43;5.80;;;;;;;;;;7388992;19;20437;-69
2023/06/26 03:54:08;;;;;;;11.07;5.88;;;;;;;;;;7367660;19;20487;-69
2023/06/26 03:56:34;;;;;;;9.20;5.20;;;;;;;;;;7367668;19;20022;-69
2023/06/26 03:59:00;;;;;;;7.95;4.78;;;;;;;;;;7367424;19;20006;-69
2023/06/26 04:01:25;;;;;;;9.90;5.45;;;;;;;;;;7363805;19;20011;-68
2023/06/26 04:03:50;;;;;;;8.55;5.50;;;;;;;;;;7386423;19;19998;-68
2023/06/26 04:06:16;;;;;;;10.48;5.50;;;;;;;;;;7365295;19;20070;-68
2023/06/26 04:08:41;;;;;;;10.40;6.03;;;;;;;;;;7365296;19;20019;-68
2023/06/26 04:11:07;;;;;;;9.13;5.40;;;;;;;;;;7365884;19;20009;-68
2023/06/26 04:13:32;;;;;;;11.55;5.95;;;;;;;;;;7367380;19;20014;-68
2023/06/26 04:15:57;;;;;;;10.48;6.00;;;;;;;;;;7367080;19;20018;-68
2023/06/26 04:18:22;;;;;;;9.30;5.80;;;;;;;;;;7386310;19;20038;-70
2023/06/26 04:21:07;;;;;;;10.10;6.20;;;;;;;;;;7364450;19;20511;-68
2023/06/26 04:23:33;;;;;;;11.23;6.38;;;;;;;;;;7366153;19;20011;-68
2023/06/26 04:25:59;;;;;;;10.27;5.80;;;;;;;;;;7366209;19;20018;-67
2023/06/26 04:28:24;;;;;;;9.45;6.13;;;;;;;;;;7368307;19;20361;-69
2023/06/26 04:30:50;;;;;;;9.50;5.55;;;;;;;;;;7391952;19;20482;-69
2023/06/26 04:33:15;;;;;;;9.65;6.15;;;;;;;;;;7370424;19;20434;-67
2023/06/26 04:35:40;;;;;;;8.63;5.50;;;;;;;;;;7367307;19;20026;-69
2023/06/26 04:38:06;;;;;;;11.70;5.93;;;;;;;;;;7368166;19;20014;-68
2023/06/26 04:40:31;;;;;;;10.23;6.15;;;;;;;;;;7369751;19;20018;-68
2023/06/26 04:42:56;;;;;;;8.77;5.93;;;;;;;;;;7367252;19;20010;-69
2023/06/26 04:45:25;;;;;;;8.07;5.30;;;;;;;;;;7388027;19;20025;-69
2023/06/26 04:47:50;;;;;;;10.60;5.47;;;;;;;;;;7365275;19;20014;-68
2023/06/26 04:50:18;;;;;;;14.98;5.78;;;;;;;;;;7371351;19;20010;-69
2023/06/26 04:52:43;;;;;;;10.98;5.93;;;;;;;;;;7372756;19;20038;-72
2023/06/26 04:55:09;;;;;;;9.98;5.50;;;;;;;;;;7374611;19;20074;-67
2023/06/26 04:57:34;;;;;;;10.02;6.15;;;;;;;;;;7387159;19;20042;-68
2023/06/26 04:59:59;;;;;;;13.50;5.72;;;;;;;;;;7369530;19;20026;-69
2023/06/26 05:02:26;;;;;;;9.10;5.72;;;;;;;;;;7373272;19;20006;-69
2023/06/26 05:04:52;;;;;;;8.70;5.70;;;;;;;;;;7373917;19;20936;-68
2023/06/26 05:07:17;;;;;;;7.78;5.57;;;;;;;;;;7370921;19;20014;-69
2023/06/26 05:09:42;;;;;;;10.60;5.40;;;;;;;;;;7392386;19;20062;-69
2023/06/26 05:12:08;;;;;;;9.93;6.03;;;;;;;;;;7371469;19;20009;-69
2023/06/26 05:14:33;;;;;;;8.68;5.70;;;;;;;;;;7371262;19;20101;-69
2023/06/26 05:16:58;;;;;;;9.00;5.47;;;;;;;;;;7370158;19;20025;-69
2023/06/26 05:19:24;;;;;;;8.88;5.95;;;;;;;;;;7372398;19;20013;-69
2023/06/26 05:21:50;;;;;;;9.07;5.80;;;;;;;;;;7391591;19;20489;-69
2023/06/26 05:24:16;;;;;;;9.52;5.82;;;;;;;;;;7373123;19;20041;-69
2023/06/26 05:26:42;;;;;;;9.02;5.97;;;;;;;;;;7374126;19;20026;-68
2023/06/26 05:29:08;;;;;;;10.50;5.70;;;;;;;;;;7377561;19;20018;-68
2023/06/26 05:31:37;;;;;;;8.10;5.38;;;;;;;;;;7375284;19;20014;-68
2023/06/26 05:34:03;;;;;;;7.28;5.07;;;;;;;;;;7376768;19;20376;-68
2023/06/26 05:36:32;;;;;;;9.77;6.22;;;;;;;;;;7400349;19;20013;-69
2023/06/26 05:38:58;;;;;;;8.52;5.45;;;;;;;;;;7378775;19;20007;-69
2023/06/26 05:41:24;;;;;;;8.40;5.75;;;;;;;;;;7375435;19;20019;-69
2023/06/26 05:43:49;;;;;;;9.75;5.95;;;;;;;;;;7375795;19;20416;-68
2023/06/26 05:46:15;;;;;;;8.77;5.63;;;;;;;;;;7375735;19;20060;-68
2023/06/26 05:48:40;;;;;;;10.15;5.30;;;;;;;;;;7395032;19;20059;-69
2023/06/26 05:51:06;;;;;;;10.13;5.60;;;;;;;;;;7373512;19;20010;-69
2023/06/26 05:53:32;;;;;;;9.15;4.90;;;;;;;;;;7376583;19;20040;-69
2023/06/26 05:55:57;;;;;;;8.32;5.30;;;;;;;;;;7378345;19;20006;-68
2023/06/26 05:58:27;;;;;;;8.00;5.15;;;;;;;;;;7375913;19;20083;-69
2023/06/26 06:00:52;;;;;;;9.30;5.72;;;;;;;;;;7394790;19;20006;-69
2023/06/26 06:03:18;;;;;;;10.25;6.00;;;;;;;;;;7388115;19;20028;-68
2023/06/26 06:05:43;;;;;;;8.73;5.63;;;;;;;;;;7374898;19;20010;-68
2023/06/26 06:08:09;;;;;;;11.27;5.35;;;;;;;;;;7373832;19;20011;-67
2023/06/26 06:10:34;;;;;;;10.20;5.50;;;;;;;;;;7368554;19;20026;-69
2023/06/26 06:12:59;;;;;;;11.55;5.72;;;;;;;;;;7368954;19;20027;-69
2023/06/26 06:15:25;;;;;;;8.80;5.10;;;;;;;;;;7393804;19;20025;-69
2023/06/26 06:17:50;;;;;;;9.20;5.78;;;;;;;;;;7368720;19;20010;-70
2023/06/26 06:20:17;;;;;;;9.05;5.32;;;;;;;;;;7371777;19;20317;-69
2023/06/26 06:22:42;;;;;;;9.63;5.53;;;;;;;;;;7372906;19;20476;-69
2023/06/26 06:25:08;;;;;;;9.68;5.40;;;;;;;;;;7372195;19;20006;-68
2023/06/26 06:27:33;;;;;;;7.15;5.03;;;;;;;;;;7392221;19;20020;-69
2023/06/26 06:29:58;;;;;;;9.45;5.60;;;;;;;;;;7370794;19;20017;-68
2023/06/26 06:32:24;;;;;;;7.32;5.00;;;;;;;;;;7371852;19;20013;-70
2023/06/26 06:34:49;;;;;;;9.00;5.20;;;;;;;;;;7372211;19;20030;-69
2023/06/26 06:37:14;;;;;;;9.97;5.40;;;;;;;;;;7371393;19;20010;-70
2023/06/26 06:39:40;;;;;;;7.90;5.03;;;;;;;;;;7393353;19;20270;-70
2023/06/26 06:42:05;;;;;;;7.93;4.90;;;;;;;;;;7372094;19;20388;-69
2023/06/26 06:44:30;;;;;;;8.23;5.38;;;;;;;;;;7368906;19;20073;-70
2023/06/26 06:46:56;;;;;;;7.15;5.07;;;;;;;;;;7366184;19;20010;-69
2023/06/26 06:49:21;;;;;;;8.98;4.70;;;;;;;;;;7375513;19;20131;-70
2023/06/26 06:51:47;;;;;;;7.32;5.25;;;;;;;;;;7394473;19;20006;-69
2023/06/26 06:54:12;;;;;;;8.60;5.68;;;;;;;;;;7371662;19;20022;-69
2023/06/26 06:56:37;;;;;;;9.32;5.28;;;;;;;;;;7369581;19;20041;-70
2023/06/26 06:59:03;;;;;;;7.88;5.25;;;;;;;;;;7367540;19;20365;-70
2023/06/26 07:01:28;;;;;;;7.78;4.85;;;;;;;;;;7369580;19;20014;-71
2023/06/26 07:03:54;;;;;;;6.80;4.93;;;;;;;;;;7370711;19;20407;-69
2023/06/26 07:06:19;;;;;;;7.55;4.93;;;;;;;;;;7390610;19;20006;-69
2023/06/26 07:08:44;;;;;;;7.05;4.80;;;;;;;;;;7366400;19;20010;-70
2023/06/26 07:11:10;;;;;;;6.85;4.63;;;;;;;;;;7369225;19;20026;-72
2023/06/26 07:13:35;;;;;;;7.25;4.50;;;;;;;;;;7367770;19;20131;-70
2023/06/26 07:16:00;;;;;;;11.18;5.22;;;;;;;;;;7369597;19;20436;-70
2023/06/26 07:18:25;;;;;;;8.17;4.90;;;;;;;;;;7390244;19;20022;-69
2023/06/26 07:20:51;;;;;;;7.67;5.17;;;;;;;;;;7365579;19;20785;-69
2023/06/26 07:23:16;;;;;;;9.55;5.10;;;;;;;;;;7367629;19;20240;-70
2023/06/26 07:25:41;;;;;;;9.10;5.38;;;;;;;;;;7367943;19;20014;-70
2023/06/26 07:28:11;;;;;;;9.17;5.37;;;;;;;;;;7367103;19;20025;-68
2023/06/26 07:30:37;;;;;;;;;;;;;;;;;;7389400;19;20286;-70
2023/06/26 07:33:02;;;;;;;8.93;4.87;;;;;;;;;;7368282;19;19950;-71
2023/06/26 07:35:27;;;;;;;8.57;5.32;;;;;;;;;;7369063;19;20259;-70
2023/06/26 07:37:53;;;;;;;9.23;4.78;;;;;;;;;;7367595;19;20524;-71
2023/06/26 07:40:18;;;;;;;8.45;4.97;;;;;;;;;;7368691;19;20006;-70
2023/06/26 07:42:44;;;;;;;8.43;4.90;;;;;;;;;;7390362;19;20002;-71
2023/06/26 07:45:11;;;;;;;9.73;5.28;;;;;;;;;;7368508;19;20667;-70
2023/06/26 07:47:37;;;;;;;11.93;5.45;;;;;;;;;;7367702;19;20002;-70
2023/06/26 07:50:03;;;;;;;8.73;5.30;;;;;;;;;;7367771;19;20017;-71
2023/06/26 07:52:30;;;;;;;11.43;5.30;;;;;;;;;;7369433;19;20006;-70
2023/06/26 07:54:55;;;;;;;19.05;5.43;;;;;;;;;;7368884;19;20009;-71
2023/06/26 07:57:21;;;;;;;12.95;5.55;;;;;;;;;;7390236;19;20070;-70
2023/06/26 07:59:46;;;;;;;16.90;5.85;;;;;;;;;;7368980;19;20014;-70
2023/06/26 08:02:11;;;;;;;16.10;5.65;;;;;;;;;;7369026;19;20007;-70
2023/06/26 08:04:37;;;;;;;11.43;5.70;;;;;;;;;;7368606;19;20021;-70
2023/06/26 08:07:03;;;;;;;12.20;5.43;;;;;;;;;;7368977;19;19999;-70
2023/06/26 08:09:29;;;;;;;10.40;5.10;;;;;;;;;;7389423;19;20034;-70
2023/06/26 08:11:56;;;;;;;8.20;4.90;;;;;;;;;;7367765;19;20086;-69
2023/06/26 08:14:22;;;;;;;7.60;4.93;;;;;;;;;;7369064;19;20074;-70
2023/06/26 08:16:48;;;;;;;6.25;4.45;;;;;;;;;;7368286;19;20023;-69
2023/06/26 08:19:15;;;;;;;7.38;4.60;;;;;;;;;;7367468;19;20025;-70
2023/06/26 08:21:41;;;;;;;8.13;4.60;;;;;;;;;;7390098;19;19999;-70
2023/06/26 08:24:07;;;;;;;7.70;4.57;;;;;;;;;;7368630;19;20400;-70
2023/06/26 08:26:34;;;;;;;9.45;4.68;;;;;;;;;;7367552;19;20019;-70
2023/06/26 08:28:59;;;;;;;6.93;4.43;;;;;;;;;;7369480;19;20044;-70
2023/06/26 08:31:24;;;;;;;8.18;4.63;;;;;;;;;;7367009;19;20027;-71
2023/06/26 08:33:50;;;;;;;7.05;4.20;;;;;;;;;;7390188;19;19998;-70
2023/06/26 08:36:15;;;;;;;6.50;4.33;;;;;;;;;;7374236;19;20004;-71
2023/06/26 08:38:41;;;;;;;6.10;4.45;;;;;;;;;;7374657;19;20608;-70
2023/06/26 08:41:09;;;;;;;7.75;4.57;;;;;;;;;;7375333;19;20010;-72
2023/06/26 08:43:35;;;;;;;7.00;4.65;;;;;;;;;;7378586;19;20013;-70
2023/06/26 08:46:01;;;;;;;7.93;4.57;;;;;;;;;;7380546;19;20007;-70
2023/06/26 08:48:31;;;;;;;6.18;4.60;;;;;;;;;;7397780;19;20006;-70
2023/06/26 08:50:58;;;;;;;7.10;4.03;;;;;;;;;;7374942;19;20002;-70
2023/06/26 08:53:42;;;;;;;8.18;4.60;;;;;;;;;;7377430;19;20023;-70
2023/06/26 08:56:08;;;;;;;7.43;4.25;;;;;;;;;;7377621;19;20002;-70
2023/06/26 08:58:37;;;;;;;5.85;4.28;;;;;;;;;;7377083;19;20039;-70
2023/06/26 09:01:04;;;;;;;7.55;4.50;;;;;;;;;;7375618;19;19998;-70
2023/06/26 09:03:30;;;;;;;7.45;4.38;;;;;;;;;;7395176;19;20441;-71
2023/06/26 09:05:56;;;;;;;14.98;4.22;;;;;;;;;;7373643;19;19998;-71
2023/06/26 09:08:21;;;;;;;8.45;4.38;;;;;;;;;;7373413;19;20082;-71
2023/06/26 09:10:46;;;;;;;5.70;4.07;;;;;;;;;;7374386;19;20010;-71
2023/06/26 09:13:12;;;;;;;8.40;4.68;;;;;;;;;;7375415;19;20007;-70
2023/06/26 09:15:41;;;;;;;7.47;4.70;;;;;;;;;;7396660;19;20032;-71
2023/06/26 09:18:07;;;;;;;6.55;4.07;;;;;;;;;;7372757;19;20006;-70
2023/06/26 09:20:33;;;;;;;9.68;4.30;;;;;;;;;;7374016;19;20723;-71
2023/06/26 09:22:59;;;;;;;6.97;4.50;;;;;;;;;;7373511;19;20027;-70
2023/06/26 09:25:25;;;;;;;7.03;4.25;;;;;;;;;;7374623;19;20011;-70
2023/06/26 09:27:50;;;;;;;7.88;4.20;;;;;;;;;;7393630;19;20028;-71
2023/06/26 09:30:19;;;;;;;5.65;3.80;;;;;;;;;;7372595;19;20006;-70
2023/06/26 09:32:45;;;;;;;7.23;4.23;;;;;;;;;;7374523;19;20003;-71
2023/06/26 09:35:11;;;;;;;6.07;4.00;;;;;;;;;;7373371;19;20239;-70
2023/06/26 09:37:37;;;;;;;7.00;4.47;;;;;;;;;;7372410;19;20002;-71
2023/06/26 09:40:04;;;;;;;7.57;4.57;;;;;;;;;;7373598;19;20823;-72
2023/06/26 09:42:30;;;;;;;6.93;4.38;;;;;;;;;;7395138;19;20028;-71
2023/06/26 09:44:55;;;;;;;7.72;4.63;;;;;;;;;;7372994;19;19999;-71
2023/06/26 09:47:21;;;;;;;6.82;4.30;;;;;;;;;;7369038;19;20065;-71
2023/06/26 09:49:47;;;;;;;9.10;4.05;;;;;;;;;;7372545;19;20006;-70
2023/06/26 09:52:16;;;;;;;7.13;4.60;;;;;;;;;;7370821;19;20018;-71
2023/06/26 09:54:45;;;;;;;7.32;4.75;;;;;;;;;;7393789;19;20007;-71
2023/06/26 09:57:13;;;;;;;6.97;4.20;;;;;;;;;;7370957;19;20006;-70
2023/06/26 09:59:39;;;;;;;7.70;4.30;;;;;;;;;;7371515;19;20007;-70
2023/06/26 10:02:05;;;;;;;9.13;4.70;;;;;;;;;;7371958;19;20006;-70
2023/06/26 10:04:30;;;;;;;7.18;4.22;;;;;;;;;;7372239;19;20023;-70
2023/06/26 10:06:57;;;;;;;7.63;4.03;;;;;;;;;;7372203;19;20003;-71
2023/06/26 10:09:23;;;;;;;7.25;4.40;;;;;;;;;;7393846;19;20053;-71
2023/06/26 10:11:57;;;;;;;6.72;4.35;;;;;;;;;;7371727;19;20003;-70
2023/06/26 10:14:26;;;;;;;7.75;4.68;;;;;;;;;;7372062;19;20544;-71
2023/06/26 10:16:54;;;;;;;9.97;4.53;;;;;;;;;;7371473;19;20612;-70
2023/06/26 10:19:24;;;;;;;6.50;4.40;;;;;;;;;;7372402;19;20240;-71
2023/06/26 10:21:54;;;;;;;6.55;4.25;;;;;;;;;;7394370;19;20002;-71
2023/06/26 10:24:20;;;;;;;6.47;4.05;;;;;;;;;;7372348;19;20069;-72
2023/06/26 10:26:51;;;;;;;6.50;3.80;;;;;;;;;;7370733;19;20701;-71
2023/06/26 10:29:19;;;;;;;8.27;4.78;;;;;;;;;;7371327;19;20015;-71
2023/06/26 10:31:52;;;;;;;5.63;4.00;;;;;;;;;;7371136;19;20025;-72
2023/06/26 10:34:18;;;;;;;7.45;4.43;;;;;;;;;;7372532;19;20002;-71
2023/06/26 10:36:43;;;;;;;7.10;4.10;;;;;;;;;;7390887;19;20025;-70
2023/06/26 10:39:09;;;;;;;7.40;4.25;;;;;;;;;;7368990;19;20015;-71
2023/06/26 10:41:43;;;;;;;6.20;4.00;;;;;;;;;;7371547;19;20007;-70
2023/06/26 10:44:16;;;;;;;7.47;3.90;;;;;;;;;;7372118;19;20035;-70
2023/06/26 10:46:52;;;;;;;11.68;4.30;;;;;;;;;;7365791;19;20023;-70
2023/06/26 10:49:19;;;;;;;7.30;4.18;;;;;;;;;;7372146;19;20010;-73
2023/06/26 10:51:49;;;;;;;5.97;4.18;;;;;;;;;;7391820;19;20342;-70
2023/06/26 10:54:16;;;;;;;6.40;3.80;;;;;;;;;;7371714;19;20037;-71
2023/06/26 10:56:43;;;;;;;9.10;3.95;;;;;;;;;;7370458;19;20014;-69
2023/06/26 10:59:18;;;;;;;5.82;3.90;;;;;;;;;;7369041;19;20400;-71
2023/06/26 11:01:46;;;;;;;7.00;4.03;;;;;;;;;;7377624;19;20010;-70
2023/06/26 11:04:14;;;;;;;8.40;4.03;;;;;;;;;;7374627;19;19998;-70
2023/06/26 11:06:40;;;;;;;7.75;4.55;;;;;;;;;;7396402;19;20758;-71
2023/06/26 11:09:05;;;;;;;6.60;3.83;;;;;;;;;;7370910;19;20019;-70
2023/06/26 11:11:59;;;;;;;6.20;3.97;;;;;;;;;;7370816;19;20067;-70
2023/06/26 11:14:26;;;;;;;8.25;3.83;;;;;;;;;;7370839;19;20238;-70
2023/06/26 11:16:52;;;;;;;6.85;4.03;;;;;;;;;;7370181;19;20010;-71
2023/06/26 11:19:19;;;;;;;10.48;4.13;;;;;;;;;;7370315;19;20059;-69
2023/06/26 11:21:45;;;;;;;6.63;3.92;;;;;;;;;;7391476;19;20460;-69
2023/06/26 11:24:12;;;;;;;9.32;3.88;;;;;;;;;;7369206;19;20002;-70
2023/06/26 11:26:38;;;;;;;12.40;4.22;;;;;;;;;;7369609;19;20372;-70
2023/06/26 11:29:04;;;;;;;9.35;4.78;;;;;;;;;;7369887;19;20002;-70
2023/06/26 11:31:35;;;;;;;7.72;4.53;;;;;;;;;;7369676;19;20013;-69
2023/06/26 11:34:05;;;;;;;10.88;4.93;;;;;;;;;;7370491;19;20473;-70
2023/06/26 11:36:31;;;;;;;7.68;4.80;;;;;;;;;;7391727;19;20079;-70
2023/06/26 11:39:02;;;;;;;8.98;5.10;;;;;;;;;;7368389;19;20468;-70
2023/06/26 11:41:30;;;;;;;8.75;5.32;;;;;;;;;;7366818;19;20015;-71
2023/06/26 11:44:00;;;;;;;6.60;4.70;;;;;;;;;;7368727;19;20484;-71
2023/06/26 11:46:25;;;;;;;10.40;4.80;;;;;;;;;;7368376;19;20041;-72
2023/06/26 11:48:50;;;;;;;9.00;4.93;;;;;;;;;;7390872;19;20739;-70
2023/06/26 11:51:16;;;;;;;7.72;5.65;;;;;;;;;;7367377;19;20379;-71
2023/06/26 11:53:43;;;;;;;8.15;5.68;;;;;;;;;;7367851;19;20076;-70
2023/06/26 11:56:09;;;;;;;9.65;6.03;;;;;;;;;;7368036;19;20070;-71
2023/06/26 11:58:35;;;;;;;10.00;6.28;;;;;;;;;;7366911;19;20002;-70
2023/06/26 12:01:00;;;;;;;10.13;5.73;;;;;;;;;;7367460;19;19998;-70
2023/06/26 12:03:25;;;;;;;8.55;5.68;;;;;;;;;;7389061;19;20278;-71
2023/06/26 12:05:52;;;;;;;8.48;5.88;;;;;;;;;;7367132;19;20084;-71
2023/06/26 12:08:18;;;;;;;9.30;5.57;;;;;;;;;;7369339;19;20014;-70
2023/06/26 12:10:44;;;;;;;10.07;6.07;;;;;;;;;;7367717;19;20039;-72
2023/06/26 12:13:10;;;;;;;9.05;5.78;;;;;;;;;;7370493;19;20098;-71
2023/06/26 12:15:35;;;;;;;8.32;5.53;;;;;;;;;;7392447;19;20509;-70
2023/06/26 12:18:08;;;;;;;7.50;5.10;;;;;;;;;;7370038;19;20011;-70
2023/06/26 12:20:33;;;;;;;8.18;4.68;;;;;;;;;;7369062;19;20014;-71
2023/06/26 12:22:58;;;;;;;8.30;5.20;;;;;;;;;;7369777;19;20016;-71
2023/06/26 12:25:24;;;;;;;7.53;4.15;;;;;;;;;;7368226;19;20014;-71
2023/06/26 12:27:49;;;;;;;6.35;4.07;;;;;;;;;;7387131;19;20009;-70
2023/06/26 12:30:15;;;;;;;7.82;4.20;;;;;;;;;;7362343;19;20010;-71
2023/06/26 12:32:44;;;;;;;6.80;3.65;;;;;;;;;;7366856;19;20542;-71
2023/06/26 12:35:10;;;;;;;7.78;4.05;;;;;;;;;;7370210;19;20540;-71
2023/06/26 12:37:42;;;;;;;8.48;3.50;;;;;;;;;;7373155;19;20071;-70
2023/06/26 12:40:23;;;;;;;5.93;3.25;;;;;;;;;;7366649;19;20520;-70
2023/06/26 12:42:48;;;;;;;6.28;3.60;;;;;;;;;;7392073;19;20002;-71
2023/06/26 12:45:15;;;;;;;6.05;3.33;;;;;;;;;;7370786;19;20070;-70
2023/06/26 12:47:43;;;;;;;6.22;3.50;;;;;;;;;;7369225;19;20081;-70
2023/06/26 12:50:09;;;;;;;5.53;3.35;;;;;;;;;;7362959;19;20071;-70
2023/06/26 12:52:34;;;;;;;9.10;4.00;;;;;;;;;;7364633;19;20015;-70
2023/06/26 12:54:59;;;;;;;8.10;4.45;;;;;;;;;;7368540;19;19999;-71
2023/06/26 12:57:26;;;;;;;6.80;4.18;;;;;;;;;;7389025;19;20564;-70
2023/06/26 12:59:51;;;;;;;8.40;4.22;;;;;;;;;;7367429;19;20006;-70
2023/06/26 13:02:17;;;;;;;9.55;4.28;;;;;;;;;;7367090;19;19999;-70
2023/06/26 13:04:44;;;;;;;6.70;3.60;;;;;;;;;;7367759;19;20006;-71
2023/06/26 13:07:10;;;;;;;6.43;3.60;;;;;;;;;;7368092;19;20007;-70
2023/06/26 13:09:36;;;;;;;12.45;3.58;;;;;;;;;;7391936;19;20342;-70
2023/06/26 13:12:03;;;;;;;6.30;3.47;;;;;;;;;;7379228;19;20002;-70
2023/06/26 13:14:29;;;;;;;8.30;3.92;;;;;;;;;;7374048;19;20438;-71
2023/06/26 13:16:54;;;;;;;7.88;3.88;;;;;;;;;;7372007;19;20007;-71
2023/06/26 13:19:20;;;;;;;8.00;3.35;;;;;;;;;;7367066;19;20465;-69
2023/06/26 13:21:45;;;;;;;10.70;3.70;;;;;;;;;;7393928;19;20019;-71
2023/06/26 13:24:10;;;;;;;6.90;3.58;;;;;;;;;;7374254;19;20050;-70
2023/06/26 13:26:36;;;;;;;7.15;3.60;;;;;;;;;;7373479;19;20014;-71
2023/06/26 13:29:02;;;;;;;8.10;3.88;;;;;;;;;;7373131;19;20011;-70
2023/06/26 13:31:27;;;;;;;6.82;3.40;;;;;;;;;;7373485;19;20476;-70
2023/06/26 13:33:53;;;;;;;11.65;3.80;;;;;;;;;;7387022;19;19991;-70
2023/06/26 13:36:19;;;;;;;13.82;3.60;;;;;;;;;;7387620;19;19998;-70
2023/06/26 13:38:45;;;;;;;5.60;3.05;;;;;;;;;;7373799;19;20003;-70
2023/06/26 13:41:11;;;;;;;7.90;3.42;;;;;;;;;;7372745;19;20323;-69
2023/06/26 13:43:37;;;;;;;9.10;4.15;;;;;;;;;;7373837;19;20077;-71
2023/06/26 13:46:02;;;;;;;8.73;3.60;;;;;;;;;;7374563;19;20641;-70
2023/06/26 13:48:28;;;;;;;10.90;4.03;;;;;;;;;;7392828;19;20014;-70
2023/06/26 13:50:54;;;;;;;9.93;3.28;;;;;;;;;;7373423;19;20119;-70
2023/06/26 13:53:19;;;;;;;9.60;3.58;;;;;;;;;;7377972;19;20078;-70
2023/06/26 13:55:44;;;;;;;6.90;3.40;;;;;;;;;;7377299;19;20634;-71
2023/06/26 13:58:11;;;;;;;8.70;3.42;;;;;;;;;;7375401;19;20002;-69
2023/06/26 14:00:37;;;;;;;8.85;2.90;;;;;;;;;;7398344;19;20465;-69
2023/06/26 14:03:06;;;;;;;8.88;3.08;;;;;;;;;;7375701;19;20018;-69
2023/06/26 14:05:32;;;;;;;8.00;3.20;;;;;;;;;;7374022;19;20024;-70
2023/06/26 14:07:57;;;;;;;8.88;3.45;;;;;;;;;;7375259;19;20460;-68
2023/06/26 14:10:23;;;;;;;5.85;3.25;;;;;;;;;;7374695;19;20010;-69
2023/06/26 14:12:49;;;;;;;10.98;2.90;;;;;;;;;;7398144;19;20006;-69
2023/06/26 14:15:14;;;;;;;5.72;2.70;;;;;;;;;;7376059;19;20766;-69
2023/06/26 14:17:40;;;;;;;6.18;2.90;;;;;;;;;;7374039;19;20028;-70
2023/06/26 14:20:10;;;;;;;6.03;2.63;;;;;;;;;;7375149;19;20006;-70
2023/06/26 14:22:36;;;;;;;5.63;2.50;;;;;;;;;;7375428;19;20480;-69
2023/06/26 14:25:02;;;;;;;7.03;2.42;;;;;;;;;;7374697;19;20025;-70
2023/06/26 14:27:27;;;;;;;7.57;2.90;;;;;;;;;;7394836;19;20070;-70
2023/06/26 14:29:53;;;;;;;5.60;2.33;;;;;;;;;;7377875;19;20006;-70
2023/06/26 14:32:18;;;;;;;5.32;2.47;;;;;;;;;;7377688;19;20563;-70
2023/06/26 14:34:43;;;;;;;7.38;2.33;;;;;;;;;;7379842;19;20010;-70
2023/06/26 14:37:09;;;;;;;9.38;2.65;;;;;;;;;;7378728;19;20003;-71